General Pacheco, Argentina
Current Conditions -  °F | °C
As of 3:00 PM on Friday 28 Nov 2014 (Local Time) from SADF Reporting Station
Clear Clear  
Wind Chill: 84°   Ceiling: Unl
Heat Index: 84°   Visibility: 6mi
Dew Point: 52°   Wind: 16mph
Humidity: 33%   Direction: 20°NNE
Pressure: 29.91"   Gusts: NA
Location:  34.47°S, 58.63°W
Report Text: SADF 281800Z 02014KT CAVOK 29/11 Q1013
Loading
Personal Weather Stations






























Interactive Weather Map New forecast layout! Learn more

10-Day Weather Forecast

Advertisements
Track Severe Weather on mobile